Startpagina
METAR-TAF:

METAR-TAF

Vliegvelden :

Vientiane, Laos

breedte: 17-57N, lengte: 102-34E, hoogte: 171 m

Actueel weer

Dit bericht is 6 uur en het 38 minuten geleden gemaakt, om 16:30 UTC
Wind 2 kt uit het noordwesten
Temperatuur 22°C
Vochtigheid 100%
Druk 1014 hPa
Zicht: 4000 m
Verspreide wolken op 4000 ft
nevel

METAR: VLVT 101630Z 32002KT 4000 BR SCT040 22/22 Q1014 NOSIG

Tijdstip: 06:08 (23:08 UTC)

Verwachting

Dit bericht is 6 uur en het 8 minuten geleden gemaakt, om 17:00 UTC
Verwachting geldig van 10 om 18 UTC tot 11 om 18 UTC
Wind 4 kt uit het westnoordwesten
Zicht: 8000 m
Weinig wolken op 1600 ft
Gebroken wolken op 4000 ft
Gebroken wolken op 8300 ft
Tijdelijke
van 10 om 18 UTC tot 10 om 22 UTC
Zicht: 4000 m
Gebroken wolken op 4000 ft
Gebroken wolken op 8300 ft
nevel

TAF: VLVT 101700Z 1018/1118 30004KT 8000 FEW016 BKN040 BKN083 TEMPO 1018/1022 4000 BR BKN040 BKN083

Waarnemingen en weersverwachtingen van meer dan 4000 vliegvelden (METAR en TAF).

De beschikbare stations zijn de gele en rode punten op de kaart.

Ga met uw muis naar het station om de naam te zien.

Klik dan om waarnemingen en weersverwachtingen te zien.

kaart wijzigen: klik op de groene knoppen met een zwart kruis om in te zoomen, op de groene knop met een streepje om uit te zoomen of op de groene pijlen voor aangrenzende kaarten.


METAR-TAF: